Time,TemperatureF,DewpointF,PressureIn,WindDirection,WindDirectionDegrees,WindSpeedMPH,WindSpeedGustMPH,Humidity,HourlyPrecipIn,Conditions,Clouds,dailyrainin,SoftwareType,DateUTC
2013-02-26 00:00:00,35.4,0.4,25.57,SSW,213,3.6,6.3,22,0.00,,---,0.00,VWS V13.01,2013-02-26 07:00:00,
2013-02-26 00:20:00,34.5,-0.4,25.57,SW,214,2.2,4.0,22,0.00,,---,0.00,VWS V13.01,2013-02-26 07:20:00,
2013-02-26 00:40:00,34.0,-0.9,25.57,SW,214,3.1,3.1,22,0.00,,---,0.00,VWS V13.01,2013-02-26 07:40:00,
2013-02-26 01:00:00,33.8,-1.0,25.57,SW,214,2.2,4.9,22,0.00,,---,0.00,VWS V13.01,2013-02-26 08:00:00,
2013-02-26 01:20:00,33.3,1.2,25.57,SW,233,4.0,4.5,25,0.00,,---,0.00,VWS V13.01,2013-02-26 08:20:00,
2013-02-26 01:40:00,32.5,0.6,25.57,SW,233,4.5,5.4,25,0.00,,---,0.00,VWS V13.01,2013-02-26 08:40:00,
2013-02-26 02:00:00,32.2,0.3,25.54,SW,229,4.0,5.4,25,0.00,,---,0.00,VWS V13.01,2013-02-26 09:00:00,
2013-02-26 02:20:00,32.2,0.3,25.54,SW,217,3.1,4.9,25,0.00,,---,0.00,VWS V13.01,2013-02-26 09:20:00,
2013-02-26 02:40:00,31.8,0.0,25.54,SW,217,4.0,4.0,25,0.00,,---,0.00,VWS V13.01,2013-02-26 09:40:00,
2013-02-26 03:00:00,31.6,-0.1,25.54,SW,223,3.1,4.0,25,0.00,,---,0.00,VWS V13.01,2013-02-26 10:00:00,
2013-02-26 03:20:00,30.7,1.5,25.54,SW,229,3.6,4.9,28,0.00,,---,0.00,VWS V13.01,2013-02-26 10:20:00,
2013-02-26 03:40:00,30.9,1.7,25.54,SSW,212,4.0,4.9,28,0.00,,---,0.00,VWS V13.01,2013-02-26 10:40:00,
2013-02-26 04:00:00,31.1,1.8,25.54,SW,215,3.1,4.0,28,0.00,,---,0.00,VWS V13.01,2013-02-26 11:00:00,
2013-02-26 04:20:00,30.7,3.0,25.54,SW,218,3.6,4.0,30,0.00,,---,0.00,VWS V13.01,2013-02-26 11:20:00,
2013-02-26 04:40:00,30.4,2.7,25.54,SW,226,0.0,4.9,30,0.00,,---,0.00,VWS V13.01,2013-02-26 11:40:00,
2013-02-26 05:00:00,30.0,3.1,25.54,SW,217,4.0,4.9,31,0.00,,---,0.00,VWS V13.01,2013-02-26 12:00:00,
2013-02-26 05:20:00,29.8,2.9,25.54,SW,221,4.0,5.4,31,0.00,,---,0.00,VWS V13.01,2013-02-26 12:20:00,
2013-02-26 05:40:00,29.7,2.7,25.54,SW,221,2.7,4.9,31,0.00,,---,0.00,VWS V13.01,2013-02-26 12:40:00,
2013-02-26 06:00:00,29.5,2.6,25.54,SW,221,2.7,4.0,31,0.00,,---,0.00,VWS V13.01,2013-02-26 13:00:00,
2013-02-26 06:20:00,29.1,2.3,25.54,SW,221,3.6,3.6,31,0.00,,---,0.00,VWS V13.01,2013-02-26 13:20:00,
2013-02-26 06:40:00,28.9,2.1,25.54,SW,216,3.1,5.8,31,0.00,,---,0.00,VWS V13.01,2013-02-26 13:40:00,
2013-02-26 07:00:00,28.8,2.0,25.54,SW,215,4.0,4.9,31,0.00,,---,0.00,VWS V13.01,2013-02-26 14:00:00,
2013-02-26 07:20:00,33.8,5.7,25.54,SW,214,3.1,4.5,30,0.00,,---,0.00,VWS V13.01,2013-02-26 14:20:00,
2013-02-26 07:40:00,40.5,9.9,25.54,SW,214,2.2,4.0,28,0.00,,---,0.00,VWS V13.01,2013-02-26 14:40:00,
2013-02-26 08:20:00,41.0,10.4,25.54,South,177,0.0,0.0,28,0.00,,---,0.00,VWS V13.01,2013-02-26 15:20:00,
2013-02-26 08:40:00,43.0,9.6,25.54,SE,128,3.6,4.0,25,0.00,,---,0.00,VWS V13.01,2013-02-26 15:40:00,
2013-02-26 09:00:00,44.6,11.0,25.54,SW,231,0.0,4.0,25,0.00,,---,0.00,VWS V13.01,2013-02-26 16:00:00,
2013-02-26 09:20:00,46.0,9.3,25.57,ESE,117,0.0,5.4,22,0.00,,---,0.00,VWS V13.01,2013-02-26 16:20:00,
2013-02-26 09:40:00,47.3,10.4,25.57,NE,51,2.7,4.5,22,0.00,,---,0.00,VWS V13.01,2013-02-26 16:40:00,
2013-02-26 10:00:00,48.6,10.4,25.57,SE,142,2.2,5.4,21,0.00,,---,0.00,VWS V13.01,2013-02-26 17:00:00,
2013-02-26 10:20:00,49.6,11.3,25.54,SW,230,0.0,5.4,21,0.00,,---,0.00,VWS V13.01,2013-02-26 17:20:00,
2013-02-26 10:40:00,50.7,12.2,25.54,NNE,21,3.1,6.3,21,0.00,,---,0.00,VWS V13.01,2013-02-26 17:40:00,
2013-02-26 11:00:00,52.3,13.6,25.54,North,9,0.0,7.6,21,0.00,,---,0.00,VWS V13.01,2013-02-26 18:00:00,
2013-02-26 11:20:00,54.5,14.3,25.54,NNW,344,4.0,9.2,20,0.00,,---,0.00,VWS V13.01,2013-02-26 18:20:00,
2013-02-26 11:40:00,56.8,16.2,25.54,NE,40,8.3,8.7,20,0.00,,---,0.00,VWS V13.01,2013-02-26 18:40:00,
2013-02-26 12:00:00,60.3,17.9,25.54,NNE,31,8.1,11.4,19,0.00,,---,0.00,VWS V13.01,2013-02-26 19:00:00,
2013-02-26 12:20:00,63.1,19.0,25.54,NNE,14,5.8,8.3,18,0.00,,---,0.00,VWS V13.01,2013-02-26 19:20:00,
2013-02-26 12:40:00,66.7,20.6,25.51,NW,314,5.4,13.2,17,0.00,,---,0.00,VWS V13.01,2013-02-26 19:40:00,
2013-02-26 13:00:00,68.5,22.0,25.51,North,353,9.2,11.4,17,0.00,,---,0.00,VWS V13.01,2013-02-26 20:00:00,
2013-02-26 13:20:00,69.8,23.1,25.51,WNW,289,11.0,13.2,17,0.00,,---,0.00,VWS V13.01,2013-02-26 20:20:00,
2013-02-26 13:40:00,70.9,23.9,25.48,WNW,288,8.3,15.4,17,0.00,,---,0.00,VWS V13.01,2013-02-26 20:40:00,
2013-02-26 14:00:00,71.6,23.1,25.48,WNW,289,8.7,15.0,16,0.00,,---,0.00,VWS V13.01,2013-02-26 21:00:00,
2013-02-26 14:20:00,71.6,23.1,25.48,WSW,246,5.8,12.8,16,0.00,,---,0.00,VWS V13.01,2013-02-26 21:20:00,
2013-02-26 14:40:00,70.3,23.5,25.48,West,280,8.1,15.0,17,0.00,,---,0.00,VWS V13.01,2013-02-26 21:40:00,
2013-02-26 15:00:00,69.4,22.8,25.51,WNW,290,5.4,15.0,17,0.00,,---,0.00,VWS V13.01,2013-02-26 22:00:00,
2013-02-26 15:20:00,68.5,22.0,25.51,WNW,298,12.3,15.4,17,0.00,,---,0.00,VWS V13.01,2013-02-26 22:20:00,
2013-02-26 15:40:00,66.9,20.7,25.51,WNW,302,16.8,16.8,17,0.00,,---,0.00,VWS V13.01,2013-02-26 22:40:00,
2013-02-26 16:00:00,65.8,21.2,25.51,NNW,342,8.7,16.8,18,0.00,,---,0.00,VWS V13.01,2013-02-26 23:00:00,
2013-02-26 16:20:00,66.0,21.3,25.51,WSW,239,8.1,14.5,18,0.00,,---,0.00,VWS V13.01,2013-02-26 23:20:00,
2013-02-26 16:40:00,66.0,21.3,25.51,North,0,6.3,14.5,18,0.00,,---,0.00,VWS V13.01,2013-02-26 23:40:00,
2013-02-26 17:00:00,64.4,20.0,25.54,North,357,8.7,14.1,18,0.00,,---,0.00,VWS V13.01,2013-02-27 00:00:00,
2013-02-26 17:20:00,62.2,19.5,25.54,WNW,297,11.0,15.9,19,0.00,,---,0.00,VWS V13.01,2013-02-27 00:20:00,
2013-02-26 17:40:00,60.4,18.0,25.54,NW,308,6.7,14.5,19,0.00,,---,0.00,VWS V13.01,2013-02-27 00:40:00,
2013-02-26 18:00:00,58.8,16.7,25.54,West,276,5.8,13.2,19,0.00,,---,0.00,VWS V13.01,2013-02-27 01:00:00,
2013-02-26 18:20:00,56.3,12.1,25.54,WNW,292,5.8,10.5,17,0.00,,---,0.00,VWS V13.01,2013-02-27 01:20:00,
2013-02-26 18:40:00,54.3,11.7,25.51,NW,307,5.4,11.0,18,0.00,,---,0.00,VWS V13.01,2013-02-27 01:40:00,
2013-02-26 19:00:00,52.7,10.4,25.54,NW,306,8.1,10.5,18,0.00,,---,0.00,VWS V13.01,2013-02-27 02:00:00,
2013-02-26 19:20:00,51.8,9.7,25.54,WSW,256,3.6,8.1,18,0.00,,---,0.00,VWS V13.01,2013-02-27 02:20:00,
2013-02-26 19:40:00,50.5,9.8,25.57,WNW,294,8.7,11.0,19,0.00,,---,0.00,VWS V13.01,2013-02-27 02:40:00,
2013-02-26 20:00:00,49.5,8.9,25.57,West,281,10.1,12.3,19,0.00,,---,0.00,VWS V13.01,2013-02-27 03:00:00,
2013-02-26 20:20:00,48.7,8.3,25.57,WNW,300,7.6,13.2,19,0.00,,---,0.00,VWS V13.01,2013-02-27 03:20:00,
2013-02-26 20:40:00,48.2,7.9,25.57,NNW,331,6.3,11.0,19,0.00,,---,0.00,VWS V13.01,2013-02-27 03:40:00,
2013-02-26 21:00:00,48.0,7.7,25.57,WNW,283,6.3,11.0,19,0.00,,---,0.00,VWS V13.01,2013-02-27 04:00:00,
2013-02-26 21:20:00,47.5,7.3,25.60,WNW,298,8.1,10.5,19,0.00,,---,0.00,VWS V13.01,2013-02-27 04:20:00,
2013-02-26 21:40:00,47.3,7.1,25.60,WNW,299,8.7,11.0,19,0.00,,---,0.00,VWS V13.01,2013-02-27 04:40:00,
2013-02-26 22:00:00,46.9,6.8,25.60,WNW,303,8.3,10.5,19,0.00,,---,0.00,VWS V13.01,2013-02-27 05:00:00,
2013-02-26 22:20:00,46.2,7.4,25.60,WNW,295,6.7,8.7,20,0.00,,---,0.00,VWS V13.01,2013-02-27 05:20:00,
2013-02-26 22:40:00,45.5,6.8,25.60,WNW,301,4.5,8.3,20,0.00,,---,0.00,VWS V13.01,2013-02-27 05:40:00,
2013-02-26 23:00:00,45.0,6.3,25.63,North,2,3.6,8.7,20,0.00,,---,0.00,VWS V13.01,2013-02-27 06:00:00,
2013-02-26 23:20:00,44.4,5.9,25.63,WNW,285,4.0,8.7,20,0.00,,---,0.00,VWS V13.01,2013-02-27 06:20:00,
2013-02-26 23:40:00,43.5,5.1,25.63,West,262,2.7,4.0,20,0.00,,---,0.00,VWS V13.01,2013-02-27 06:40:00,